createdAt,value
2019-01-20T00:00:21.710Z,-2.50
2019-01-20T00:00:45.471Z,-2.50
2019-01-20T00:01:09.790Z,-2.50
2019-01-20T00:01:32.430Z,-2.50
2019-01-20T00:01:55.394Z,-2.50
2019-01-20T00:02:19.611Z,-2.60
2019-01-20T00:02:42.371Z,-2.60
2019-01-20T00:03:05.150Z,-2.60
2019-01-20T00:03:27.872Z,-2.60
2019-01-20T00:03:50.671Z,-2.60
2019-01-20T00:04:13.190Z,-2.60
2019-01-20T00:04:36.023Z,-2.60
2019-01-20T00:04:58.830Z,-2.60
2019-01-20T00:05:21.610Z,-2.60
2019-01-20T00:05:44.310Z,-2.70
2019-01-20T00:06:06.854Z,-2.70
2019-01-20T00:06:29.553Z,-2.70
2019-01-20T00:06:52.273Z,-2.70
2019-01-20T00:07:15.229Z,-2.70
2019-01-20T00:07:37.911Z,-2.70
2019-01-20T00:08:00.611Z,-2.70
2019-01-20T00:08:23.152Z,-2.70
2019-01-20T00:08:46.114Z,-2.70
2019-01-20T00:09:10.367Z,-2.70
2019-01-20T00:09:33.113Z,-2.70
2019-01-20T00:09:55.829Z,-2.70
2019-01-20T00:10:20.711Z,-2.70
2019-01-20T00:10:43.793Z,-2.70
2019-01-20T00:11:06.591Z,-2.70
2019-01-20T00:11:29.756Z,-2.70
2019-01-20T00:11:52.369Z,-2.60
2019-01-20T00:12:15.531Z,-2.60
2019-01-20T00:12:38.145Z,-2.60
2019-01-20T00:13:00.869Z,-2.70
2019-01-20T00:13:23.587Z,-2.70
2019-01-20T00:13:46.303Z,-2.60
2019-01-20T00:14:09.024Z,-2.70
2019-01-20T00:14:31.771Z,-2.70
2019-01-20T00:14:54.470Z,-2.70
2019-01-20T00:15:17.254Z,-2.70
2019-01-20T00:15:39.950Z,-2.70
2019-01-20T00:16:02.582Z,-2.70
2019-01-20T00:16:25.350Z,-2.70
2019-01-20T00:16:48.150Z,-2.70
2019-01-20T00:17:10.788Z,-2.70
2019-01-20T00:17:33.345Z,-2.70
2019-01-20T00:17:56.033Z,-2.70
2019-01-20T00:18:18.624Z,-2.70
2019-01-20T00:18:41.290Z,-2.70
2019-01-20T00:19:03.950Z,-2.70
2019-01-20T00:19:27.090Z,-2.60
2019-01-20T00:19:49.825Z,-2.60
2019-01-20T00:20:12.888Z,-2.60
2019-01-20T00:20:35.611Z,-2.60
2019-01-20T00:20:58.230Z,-2.60
2019-01-20T00:21:20.850Z,-2.50
2019-01-20T00:21:45.291Z,-2.50
2019-01-20T00:22:08.384Z,-2.50
2019-01-20T00:22:30.970Z,-2.50
2019-01-20T00:22:54.144Z,-2.50
2019-01-20T00:23:16.865Z,-2.50
2019-01-20T00:23:39.492Z,-2.50
2019-01-20T00:24:02.061Z,-2.50
2019-01-20T00:24:24.813Z,-2.50
2019-01-20T00:24:49.454Z,-2.50
2019-01-20T00:25:12.144Z,-2.50
2019-01-20T00:25:34.912Z,-2.50
2019-01-20T00:25:57.612Z,-2.50
2019-01-20T00:26:20.230Z,-2.50
2019-01-20T00:26:43.291Z,-2.50
2019-01-20T00:27:06.911Z,-2.50
2019-01-20T00:27:31.813Z,-2.50
2019-01-20T00:27:54.911Z,-2.50
2019-01-20T00:28:17.690Z,-2.50
2019-01-20T00:28:40.363Z,-2.50
2019-01-20T00:29:03.069Z,-2.50
2019-01-20T00:29:25.610Z,-2.50
2019-01-20T00:29:48.224Z,-2.50
2019-01-20T00:30:11.210Z,-2.50
2019-01-20T00:30:34.624Z,-2.50
2019-01-20T00:30:57.331Z,-2.40
2019-01-20T00:31:19.870Z,-2.40
2019-01-20T00:31:42.512Z,-2.40
2019-01-20T00:32:05.190Z,-2.40
2019-01-20T00:32:27.971Z,-2.40
2019-01-20T00:32:50.770Z,-2.40
2019-01-20T00:33:14.825Z,-2.40
2019-01-20T00:33:37.652Z,-2.40
2019-01-20T00:34:00.351Z,-2.40
2019-01-20T00:34:23.451Z,-2.40
2019-01-20T00:34:46.144Z,-2.40
2019-01-20T00:35:09.271Z,-2.40
2019-01-20T00:35:31.905Z,-2.40
2019-01-20T00:35:55.071Z,-2.40
2019-01-20T00:36:17.951Z,-2.40
2019-01-20T00:36:40.704Z,-2.40
2019-01-20T00:37:03.222Z,-2.40
2019-01-20T00:37:26.430Z,-2.50
2019-01-20T00:37:49.827Z,-2.50
2019-01-20T00:38:12.509Z,-2.50
2019-01-20T00:38:36.731Z,-2.60
2019-01-20T00:38:59.580Z,-2.60
2019-01-20T00:39:22.111Z,-2.60
2019-01-20T00:39:47.550Z,-2.70
2019-01-20T00:40:10.168Z,-2.70
2019-01-20T00:40:33.911Z,-2.70
2019-01-20T00:40:56.453Z,-2.70
2019-01-20T00:41:24.066Z,-2.60
2019-01-20T00:41:43.839Z,-2.60
2019-01-20T00:42:06.483Z,-2.60
2019-01-20T00:42:29.230Z,-2.70
2019-01-20T00:42:51.951Z,-2.70
2019-01-20T00:43:14.619Z,-2.70
2019-01-20T00:43:37.344Z,-2.70
2019-01-20T00:44:00.064Z,-2.70
2019-01-20T00:44:22.730Z,-2.70
2019-01-20T00:44:45.890Z,-2.70
2019-01-20T00:45:08.790Z,-2.70
2019-01-20T00:45:31.452Z,-2.70
2019-01-20T00:45:54.190Z,-2.70
2019-01-20T00:46:16.753Z,-2.70
2019-01-20T00:46:39.590Z,-2.70
2019-01-20T00:47:02.140Z,-2.70
2019-01-20T00:47:24.863Z,-2.70
2019-01-20T00:47:47.890Z,-2.70
2019-01-20T00:48:10.990Z,-2.70
2019-01-20T00:48:36.864Z,-2.70
2019-01-20T00:48:59.586Z,-2.70
2019-01-20T00:49:22.692Z,-2.70
2019-01-20T00:49:45.408Z,-2.80
2019-01-20T00:50:08.231Z,-2.80
2019-01-20T00:50:31.289Z,-2.80
2019-01-20T00:50:54.211Z,-2.80
2019-01-20T00:51:16.930Z,-2.80
2019-01-20T00:51:39.548Z,-2.80
2019-01-20T00:52:02.419Z,-2.80
2019-01-20T00:52:25.111Z,-2.80
2019-01-20T00:52:47.744Z,-2.80
2019-01-20T00:53:10.332Z,-2.80
2019-01-20T00:53:33.071Z,-2.80
2019-01-20T00:53:55.991Z,-2.90
2019-01-20T00:54:18.672Z,-2.90
2019-01-20T00:54:41.349Z,-2.90
2019-01-20T00:55:03.890Z,-2.90
2019-01-20T00:55:26.490Z,-2.90
2019-01-20T00:55:49.142Z,-2.90
2019-01-20T00:56:11.904Z,-2.90
2019-01-20T00:56:34.624Z,-2.90
2019-01-20T00:56:57.330Z,-2.90
2019-01-20T00:57:20.065Z,-2.90
2019-01-20T00:57:43.670Z,-2.80
2019-01-20T00:58:06.350Z,-2.90
2019-01-20T00:58:29.010Z,-2.80
2019-01-20T00:58:51.904Z,-2.90
2019-01-20T00:59:14.430Z,-2.80
2019-01-20T00:59:37.091Z,-2.80
2019-01-20T00:59:59.690Z,-2.80
2019-01-20T01:00:23.529Z,-2.80
2019-01-20T01:00:46.250Z,-2.70
2019-01-20T01:01:09.370Z,-2.80
2019-01-20T01:01:32.050Z,-2.80
2019-01-20T01:01:54.830Z,-2.80
2019-01-20T01:02:18.051Z,-2.90
2019-01-20T01:02:40.910Z,-2.90
2019-01-20T01:03:03.424Z,-2.90
2019-01-20T01:03:26.151Z,-2.90
2019-01-20T01:03:48.864Z,-2.90
2019-01-20T01:04:11.650Z,-2.90
2019-01-20T01:04:34.330Z,-2.90
2019-01-20T01:04:57.025Z,-2.90
2019-01-20T01:05:20.170Z,-2.90
2019-01-20T01:05:42.790Z,-2.90
2019-01-20T01:06:05.930Z,-2.90
2019-01-20T01:06:28.544Z,-2.80
2019-01-20T01:06:53.854Z,-2.90
2019-01-20T01:07:16.482Z,-2.90
2019-01-20T01:07:40.231Z,-2.90
2019-01-20T01:08:03.177Z,-2.90
2019-01-20T01:08:25.791Z,-2.90
2019-01-20T01:08:48.511Z,-2.90
2019-01-20T01:09:11.104Z,-2.90
2019-01-20T01:09:33.949Z,-2.90
2019-01-20T01:09:56.591Z,-3.00
2019-01-20T01:10:19.313Z,-3.00
2019-01-20T01:10:42.289Z,-3.00
2019-01-20T01:11:05.529Z,-3.00
2019-01-20T01:11:31.831Z,-3.10
2019-01-20T01:11:52.430Z,-3.10
2019-01-20T01:12:16.329Z,-3.10
2019-01-20T01:12:39.930Z,-3.10
2019-01-20T01:13:03.690Z,-3.10
2019-01-20T01:13:26.629Z,-3.10
2019-01-20T01:13:49.411Z,-3.10
2019-01-20T01:14:12.222Z,-3.10
2019-01-20T01:14:34.830Z,-3.10
2019-01-20T01:14:57.611Z,-3.10
2019-01-20T01:15:21.347Z,-3.10
2019-01-20T01:15:44.090Z,-3.10
2019-01-20T01:16:06.809Z,-3.20
2019-01-20T01:16:29.490Z,-3.20
2019-01-20T01:16:52.810Z,-3.10
2019-01-20T01:17:15.510Z,-3.20
2019-01-20T01:17:38.183Z,-3.20
2019-01-20T01:18:00.831Z,-3.10
2019-01-20T01:18:23.470Z,-3.10
2019-01-20T01:18:46.031Z,-3.10
2019-01-20T01:19:08.590Z,-3.10
2019-01-20T01:19:31.311Z,-3.10
2019-01-20T01:19:53.991Z,-3.00
2019-01-20T01:20:16.871Z,-3.00
2019-01-20T01:20:39.428Z,-3.00
2019-01-20T01:21:02.421Z,-3.00
2019-01-20T01:21:25.091Z,-3.00
2019-01-20T01:21:47.690Z,-3.00
2019-01-20T01:22:10.350Z,-3.00
2019-01-20T01:22:33.050Z,-3.00
2019-01-20T01:22:55.673Z,-3.00
2019-01-20T01:23:18.251Z,-3.00
2019-01-20T01:23:40.891Z,-3.00
2019-01-20T01:24:03.392Z,-3.10
2019-01-20T01:24:27.690Z,-3.10
2019-01-20T01:24:50.305Z,-3.10
2019-01-20T01:25:13.110Z,-3.00
2019-01-20T01:25:35.832Z,-3.10
2019-01-20T01:25:58.491Z,-3.10
2019-01-20T01:26:21.231Z,-3.10
2019-01-20T01:26:44.630Z,-3.00
2019-01-20T01:27:07.310Z,-3.00
2019-01-20T01:27:30.350Z,-3.00
2019-01-20T01:27:53.449Z,-3.00
2019-01-20T01:28:16.151Z,-3.00
2019-01-20T01:28:38.998Z,-3.00
2019-01-20T01:29:01.563Z,-3.00
2019-01-20T01:29:24.332Z,-3.00
2019-01-20T01:29:47.171Z,-3.00
2019-01-20T01:30:09.777Z,-3.00
2019-01-20T01:30:32.371Z,-3.00
2019-01-20T01:30:55.104Z,-3.00
2019-01-20T01:31:17.731Z,-3.00
2019-01-20T01:31:40.269Z,-3.00
2019-01-20T01:32:02.809Z,-3.00
2019-01-20T01:32:25.511Z,-3.00
2019-01-20T01:32:48.238Z,-3.00
2019-01-20T01:33:10.990Z,-3.00
2019-01-20T01:33:33.571Z,-3.00
2019-01-20T01:33:56.289Z,-2.90
2019-01-20T01:34:20.410Z,-2.90
2019-01-20T01:34:43.449Z,-2.90
2019-01-20T01:35:08.209Z,-2.80
2019-01-20T01:35:30.831Z,-2.80
2019-01-20T01:35:53.471Z,-2.90
2019-01-20T01:36:16.131Z,-2.80
2019-01-20T01:36:38.785Z,-2.80
2019-01-20T01:37:01.641Z,-2.80
2019-01-20T01:37:24.511Z,-2.80
2019-01-20T01:37:47.071Z,-2.80
2019-01-20T01:38:09.752Z,-2.80
2019-01-20T01:38:32.383Z,-2.80
2019-01-20T01:38:55.070Z,-2.80
2019-01-20T01:39:17.812Z,-2.80
2019-01-20T01:39:40.331Z,-2.70
2019-01-20T01:40:02.819Z,-2.80
2019-01-20T01:40:25.390Z,-2.80
2019-01-20T01:40:48.489Z,-2.80
2019-01-20T01:41:11.310Z,-2.80
2019-01-20T01:41:39.019Z,-2.80
2019-01-20T01:41:58.464Z,-2.80
2019-01-20T01:42:22.031Z,-2.90
2019-01-20T01:42:44.630Z,-2.80
2019-01-20T01:43:07.349Z,-2.80
2019-01-20T01:43:30.250Z,-2.90
2019-01-20T01:43:52.970Z,-2.90
2019-01-20T01:44:16.270Z,-2.90
2019-01-20T01:44:38.871Z,-2.90
2019-01-20T01:45:01.463Z,-2.90
2019-01-20T01:45:27.091Z,-2.90
2019-01-20T01:45:49.820Z,-3.00
2019-01-20T01:46:12.438Z,-2.90
2019-01-20T01:46:35.170Z,-2.90
2019-01-20T01:46:59.170Z,-2.90
2019-01-20T01:47:21.752Z,-2.80
2019-01-20T01:47:44.389Z,-2.80
2019-01-20T01:48:06.972Z,-2.80
2019-01-20T01:48:30.195Z,-2.80
2019-01-20T01:48:52.908Z,-2.80
2019-01-20T01:49:15.904Z,-2.80
2019-01-20T01:49:38.624Z,-2.80
2019-01-20T01:50:01.373Z,-2.80
2019-01-20T01:50:24.090Z,-2.80
2019-01-20T01:50:47.110Z,-2.80
2019-01-20T01:51:09.791Z,-2.90
2019-01-20T01:51:32.545Z,-2.90
2019-01-20T01:51:55.331Z,-2.90
2019-01-20T01:52:18.054Z,-2.80
2019-01-20T01:52:40.810Z,-2.80
2019-01-20T01:53:03.331Z,-2.80
2019-01-20T01:53:26.510Z,-2.80
2019-01-20T01:53:49.090Z,-2.80
2019-01-20T01:54:11.971Z,-2.80
2019-01-20T01:54:35.111Z,-2.80
2019-01-20T01:54:57.963Z,-2.80
2019-01-20T01:55:20.670Z,-2.80
2019-01-20T01:55:43.790Z,-2.80
2019-01-20T01:56:06.891Z,-2.80
2019-01-20T01:56:29.430Z,-2.80
2019-01-20T01:56:51.929Z,-2.80
2019-01-20T01:57:14.611Z,-2.80
2019-01-20T01:57:37.256Z,-2.80
2019-01-20T01:58:00.011Z,-2.80
2019-01-20T01:58:22.785Z,-2.80
2019-01-20T01:58:45.510Z,-2.80
2019-01-20T01:59:08.192Z,-2.80
2019-01-20T01:59:31.013Z,-2.80
2019-01-20T01:59:53.664Z,-2.80
2019-01-20T02:00:16.389Z,-2.80
2019-01-20T02:00:39.071Z,-2.90
2019-01-20T02:01:01.700Z,-2.90
2019-01-20T02:01:24.310Z,-2.90
2019-01-20T02:01:47.030Z,-2.90
2019-01-20T02:02:09.911Z,-2.90
2019-01-20T02:02:32.531Z,-2.90
2019-01-20T02:02:55.190Z,-2.80
2019-01-20T02:03:18.030Z,-2.80
2019-01-20T02:03:40.931Z,-2.80
2019-01-20T02:04:03.451Z,-2.80
2019-01-20T02:04:26.625Z,-2.90
2019-01-20T02:04:49.329Z,-2.90
2019-01-20T02:05:12.240Z,-2.90
2019-01-20T02:05:34.851Z,-2.90
2019-01-20T02:05:57.551Z,-2.90
2019-01-20T02:06:20.274Z,-2.90
2019-01-20T02:06:43.051Z,-2.80
2019-01-20T02:07:05.664Z,-2.80
2019-01-20T02:07:28.314Z,-2.80
2019-01-20T02:07:50.970Z,-2.80
2019-01-20T02:08:14.170Z,-2.80
2019-01-20T02:08:36.951Z,-2.80
2019-01-20T02:08:59.649Z,-2.80
2019-01-20T02:09:22.232Z,-2.80
2019-01-20T02:09:44.831Z,-2.80
2019-01-20T02:10:07.466Z,-2.80
2019-01-20T02:10:30.110Z,-2.80
2019-01-20T02:10:52.731Z,-2.80
2019-01-20T02:11:15.410Z,-2.90
2019-01-20T02:11:38.304Z,-2.90
2019-01-20T02:12:01.170Z,-2.90
2019-01-20T02:12:23.870Z,-2.80
2019-01-20T02:12:46.473Z,-2.80
2019-01-20T02:13:09.210Z,-2.80
2019-01-20T02:13:31.861Z,-2.90
2019-01-20T02:13:55.250Z,-2.80
2019-01-20T02:14:17.979Z,-2.80
2019-01-20T02:14:40.492Z,-2.80
2019-01-20T02:15:03.029Z,-2.90
2019-01-20T02:15:26.465Z,-2.90
2019-01-20T02:15:49.184Z,-2.90
2019-01-20T02:16:12.226Z,-2.90
2019-01-20T02:16:34.945Z,-2.90
2019-01-20T02:16:57.711Z,-2.90
2019-01-20T02:17:20.291Z,-2.90
2019-01-20T02:17:42.950Z,-2.90
2019-01-20T02:18:06.033Z,-2.90
2019-01-20T02:18:28.750Z,-2.90
2019-01-20T02:18:51.330Z,-2.90
2019-01-20T02:19:13.984Z,-2.90
2019-01-20T02:19:36.669Z,-2.90
2019-01-20T02:19:59.744Z,-2.90
2019-01-20T02:20:24.130Z,-2.90
2019-01-20T02:20:46.834Z,-2.90
2019-01-20T02:21:09.550Z,-2.90
2019-01-20T02:21:32.728Z,-2.80
2019-01-20T02:21:55.309Z,-2.80
2019-01-20T02:22:18.571Z,-2.90
2019-01-20T02:22:41.170Z,-2.90
2019-01-20T02:23:03.744Z,-2.90
2019-01-20T02:23:26.459Z,-2.90
2019-01-20T02:23:49.502Z,-2.90
2019-01-20T02:24:12.590Z,-2.90
2019-01-20T02:24:35.313Z,-2.90
2019-01-20T02:24:58.410Z,-2.90
2019-01-20T02:25:21.130Z,-2.90
2019-01-20T02:25:43.912Z,-2.80
2019-01-20T02:26:06.711Z,-2.80
2019-01-20T02:26:31.089Z,-2.80
2019-01-20T02:26:54.090Z,-2.80
2019-01-20T02:27:17.183Z,-2.80
2019-01-20T02:27:40.051Z,-2.70
2019-01-20T02:28:02.556Z,-2.70
2019-01-20T02:28:25.349Z,-2.70
2019-01-20T02:28:48.091Z,-2.80
2019-01-20T02:29:11.044Z,-2.80
2019-01-20T02:29:33.750Z,-2.80
2019-01-20T02:29:56.531Z,-2.80
2019-01-20T02:30:19.632Z,-2.80
2019-01-20T02:30:42.631Z,-2.70
2019-01-20T02:31:05.349Z,-2.70
2019-01-20T02:31:28.091Z,-2.70
2019-01-20T02:31:51.190Z,-2.70
2019-01-20T02:32:13.852Z,-2.70
2019-01-20T02:32:36.570Z,-2.80
2019-01-20T02:32:59.651Z,-2.70
2019-01-20T02:33:22.312Z,-2.70
2019-01-20T02:33:45.021Z,-2.70
2019-01-20T02:34:08.050Z,-2.70
2019-01-20T02:34:31.251Z,-2.70
2019-01-20T02:34:54.070Z,-2.70
2019-01-20T02:35:16.816Z,-2.70
2019-01-20T02:35:39.971Z,-2.70
2019-01-20T02:36:02.536Z,-2.70
2019-01-20T02:36:25.113Z,-2.70
2019-01-20T02:36:47.812Z,-2.70
2019-01-20T02:37:10.412Z,-2.70
2019-01-20T02:37:32.970Z,-2.70
2019-01-20T02:37:56.153Z,-2.70
2019-01-20T02:38:18.943Z,-2.70
2019-01-20T02:38:41.988Z,-2.70
2019-01-20T02:39:05.435Z,-2.70
2019-01-20T02:39:28.129Z,-2.70
2019-01-20T02:39:50.787Z,-2.60
2019-01-20T02:40:13.871Z,-2.60
2019-01-20T02:40:36.550Z,-2.60
2019-01-20T02:40:59.696Z,-2.70
2019-01-20T02:41:22.371Z,-2.70
2019-01-20T02:41:45.011Z,-2.70
2019-01-20T02:42:07.711Z,-2.70
2019-01-20T02:42:32.002Z,-2.70
2019-01-20T02:42:55.105Z,-2.70
2019-01-20T02:43:17.825Z,-2.70
2019-01-20T02:43:40.864Z,-2.70
2019-01-20T02:44:03.398Z,-2.70
2019-01-20T02:44:26.130Z,-2.70
2019-01-20T02:44:49.148Z,-2.70
2019-01-20T02:45:11.793Z,-2.70
2019-01-20T02:45:34.430Z,-2.70
2019-01-20T02:45:57.605Z,-2.70
2019-01-20T02:46:20.330Z,-2.70
2019-01-20T02:46:42.991Z,-2.70
2019-01-20T02:47:05.750Z,-2.70
2019-01-20T02:47:28.571Z,-2.70
2019-01-20T02:47:51.610Z,-2.70
2019-01-20T02:48:14.333Z,-2.80
2019-01-20T02:48:36.930Z,-2.80
2019-01-20T02:48:59.571Z,-2.80
2019-01-20T02:49:22.430Z,-2.80
2019-01-20T02:49:45.138Z,-2.90
2019-01-20T02:50:07.933Z,-2.90
2019-01-20T02:50:30.877Z,-2.90
2019-01-20T02:50:53.505Z,-2.90
2019-01-20T02:51:16.271Z,-2.90
2019-01-20T02:51:38.911Z,-2.80
2019-01-20T02:52:01.882Z,-2.80
2019-01-20T02:52:24.711Z,-2.80
2019-01-20T02:52:47.424Z,-2.80
2019-01-20T02:53:10.349Z,-2.80
2019-01-20T02:53:32.941Z,-2.80
2019-01-20T02:53:55.651Z,-2.80
2019-01-20T02:54:18.627Z,-2.80
2019-01-20T02:54:41.343Z,-2.90
2019-01-20T02:55:04.030Z,-2.90
2019-01-20T02:55:26.810Z,-2.90
2019-01-20T02:55:49.510Z,-2.90
2019-01-20T02:56:12.090Z,-2.90
2019-01-20T02:56:34.672Z,-2.90
2019-01-20T02:56:57.352Z,-2.90
2019-01-20T02:57:20.131Z,-2.90
2019-01-20T02:57:43.745Z,-3.00
2019-01-20T02:58:06.432Z,-3.00
2019-01-20T02:58:29.289Z,-2.90
2019-01-20T02:58:52.051Z,-2.90
2019-01-20T02:59:15.587Z,-2.90
2019-01-20T02:59:38.305Z,-2.90
2019-01-20T03:00:00.991Z,-2.90
2019-01-20T03:00:23.744Z,-3.00
2019-01-20T03:00:46.430Z,-2.90
2019-01-20T03:01:09.185Z,-2.90
2019-01-20T03:01:31.929Z,-2.90
2019-01-20T03:01:54.530Z,-2.90
2019-01-20T03:02:17.570Z,-2.90
2019-01-20T03:02:40.291Z,-2.90
2019-01-20T03:03:02.939Z,-3.00
2019-01-20T03:03:25.590Z,-3.00
2019-01-20T03:03:48.224Z,-3.00
2019-01-20T03:04:10.792Z,-3.00
2019-01-20T03:04:35.130Z,-3.00
2019-01-20T03:04:57.715Z,-3.00
2019-01-20T03:05:20.387Z,-3.00
2019-01-20T03:05:43.175Z,-3.00
2019-01-20T03:06:05.890Z,-3.00
2019-01-20T03:06:28.545Z,-3.00
2019-01-20T03:06:51.289Z,-3.00
2019-01-20T03:07:13.973Z,-3.00
2019-01-20T03:07:36.590Z,-3.00
2019-01-20T03:07:59.372Z,-3.00
2019-01-20T03:08:22.070Z,-2.90
2019-01-20T03:08:44.749Z,-3.00
2019-01-20T03:09:08.470Z,-3.00
2019-01-20T03:09:31.041Z,-3.00
2019-01-20T03:09:53.668Z,-2.90
2019-01-20T03:10:16.345Z,-2.90
2019-01-20T03:10:38.910Z,-3.00
2019-01-20T03:11:01.612Z,-3.00
2019-01-20T03:11:24.311Z,-2.90
2019-01-20T03:11:46.970Z,-2.90
2019-01-20T03:12:09.981Z,-2.90
2019-01-20T03:12:32.671Z,-2.90
2019-01-20T03:12:55.790Z,-2.90
2019-01-20T03:13:18.490Z,-2.90
2019-01-20T03:13:41.188Z,-2.90
2019-01-20T03:14:03.906Z,-2.90
2019-01-20T03:14:26.658Z,-2.90
2019-01-20T03:14:49.668Z,-2.90
2019-01-20T03:15:12.511Z,-2.90
2019-01-20T03:15:35.312Z,-2.90
2019-01-20T03:15:57.934Z,-2.90
2019-01-20T03:16:20.895Z,-2.90
2019-01-20T03:16:43.585Z,-2.90
2019-01-20T03:17:06.300Z,-2.90
2019-01-20T03:17:29.610Z,-2.90
2019-01-20T03:17:52.340Z,-2.90
2019-01-20T03:18:14.979Z,-2.90
2019-01-20T03:18:38.784Z,-2.90
2019-01-20T03:19:01.484Z,-2.90
2019-01-20T03:19:24.192Z,-2.90
2019-01-20T03:19:46.890Z,-2.90
2019-01-20T03:20:09.984Z,-2.90
2019-01-20T03:20:32.709Z,-2.90
2019-01-20T03:20:55.371Z,-2.90
2019-01-20T03:21:18.784Z,-2.90
2019-01-20T03:21:41.507Z,-2.90
2019-01-20T03:22:04.153Z,-2.90
2019-01-20T03:22:26.944Z,-2.90
2019-01-20T03:22:49.764Z,-2.90
2019-01-20T03:23:12.450Z,-2.80
2019-01-20T03:23:35.425Z,-2.80
2019-01-20T03:23:58.242Z,-2.80
2019-01-20T03:24:20.865Z,-2.80
2019-01-20T03:24:43.570Z,-2.80
2019-01-20T03:25:06.252Z,-2.80
2019-01-20T03:25:29.015Z,-2.80
2019-01-20T03:25:51.970Z,-2.80
2019-01-20T03:26:17.432Z,-2.90
2019-01-20T03:26:40.064Z,-2.90
2019-01-20T03:27:03.109Z,-2.90
2019-01-20T03:27:25.750Z,-2.90
2019-01-20T03:27:48.550Z,-2.90
2019-01-20T03:28:11.650Z,-2.90
2019-01-20T03:28:34.351Z,-2.90
2019-01-20T03:28:57.411Z,-2.90
2019-01-20T03:29:20.272Z,-2.90
2019-01-20T03:29:42.990Z,-2.90
2019-01-20T03:30:05.533Z,-2.90
2019-01-20T03:30:28.478Z,-2.90
2019-01-20T03:30:51.077Z,-2.90
2019-01-20T03:31:13.652Z,-2.90
2019-01-20T03:31:36.613Z,-2.90
2019-01-20T03:31:59.172Z,-2.90
2019-01-20T03:32:21.712Z,-2.90
2019-01-20T03:32:46.096Z,-2.90
2019-01-20T03:33:08.868Z,-2.90
2019-01-20T03:33:31.570Z,-2.80
2019-01-20T03:33:54.252Z,-2.80
2019-01-20T03:34:16.790Z,-2.80
2019-01-20T03:34:39.631Z,-2.80
2019-01-20T03:35:02.540Z,-2.80
2019-01-20T03:35:25.270Z,-2.90
2019-01-20T03:35:47.991Z,-2.90
2019-01-20T03:36:10.625Z,-2.90
2019-01-20T03:36:33.660Z,-2.90
2019-01-20T03:36:56.756Z,-2.90
2019-01-20T03:37:19.770Z,-3.00
2019-01-20T03:37:42.489Z,-3.00
2019-01-20T03:38:05.049Z,-2.90
2019-01-20T03:38:27.610Z,-2.90
2019-01-20T03:38:50.270Z,-2.90
2019-01-20T03:39:13.890Z,-2.90
2019-01-20T03:39:36.490Z,-2.90
2019-01-20T03:39:59.105Z,-2.90
2019-01-20T03:40:21.873Z,-2.90
2019-01-20T03:40:44.950Z,-2.90
2019-01-20T03:41:07.572Z,-2.90
2019-01-20T03:41:30.305Z,-2.90
2019-01-20T03:41:53.024Z,-2.90
2019-01-20T03:42:15.743Z,-2.90
2019-01-20T03:42:38.453Z,-2.90
2019-01-20T03:43:01.186Z,-2.90
2019-01-20T03:43:23.892Z,-2.90
2019-01-20T03:43:46.514Z,-2.90
2019-01-20T03:44:09.192Z,-2.90
2019-01-20T03:44:31.910Z,-2.90
2019-01-20T03:44:54.632Z,-2.90
2019-01-20T03:45:17.289Z,-2.90
2019-01-20T03:45:39.970Z,-2.90
2019-01-20T03:46:02.492Z,-2.90
2019-01-20T03:46:25.091Z,-2.90
2019-01-20T03:46:48.490Z,-2.80
2019-01-20T03:47:11.991Z,-2.80
2019-01-20T03:47:34.732Z,-2.80
2019-01-20T03:47:57.450Z,-2.90
2019-01-20T03:48:20.790Z,-2.90
2019-01-20T03:48:43.352Z,-2.90
2019-01-20T03:49:05.945Z,-2.80
2019-01-20T03:49:28.790Z,-2.80
2019-01-20T03:49:51.470Z,-2.80
2019-01-20T03:50:14.113Z,-2.80
2019-01-20T03:50:36.790Z,-2.80
2019-01-20T03:50:59.791Z,-2.80
2019-01-20T03:51:22.553Z,-2.90
2019-01-20T03:51:45.344Z,-2.90
2019-01-20T03:52:08.062Z,-2.90
2019-01-20T03:52:30.784Z,-2.90
2019-01-20T03:52:53.453Z,-2.90
2019-01-20T03:53:16.333Z,-2.80
2019-01-20T03:53:39.089Z,-2.80
2019-01-20T03:54:01.781Z,-2.90
2019-01-20T03:54:24.482Z,-2.80
2019-01-20T03:54:47.170Z,-2.80
2019-01-20T03:55:09.711Z,-2.80
2019-01-20T03:55:32.546Z,-2.80
2019-01-20T03:55:55.670Z,-2.80
2019-01-20T03:56:18.305Z,-2.80
2019-01-20T03:56:40.850Z,-2.80
2019-01-20T03:57:03.371Z,-2.80
2019-01-20T03:57:26.010Z,-2.80
2019-01-20T03:57:49.179Z,-2.80
2019-01-20T03:58:11.904Z,-2.80
2019-01-20T03:58:34.511Z,-2.80
2019-01-20T03:58:57.550Z,-2.80
2019-01-20T03:59:20.370Z,-2.80
2019-01-20T03:59:43.074Z,-2.80
2019-01-20T04:01:25.410Z,-2.90
2019-01-20T04:01:48.024Z,-2.90
2019-01-20T04:02:11.129Z,-2.90
2019-01-20T04:02:33.729Z,-2.90
2019-01-20T04:03:00.811Z,-2.80
2019-01-20T04:03:23.533Z,-2.80
2019-01-20T04:03:46.150Z,-2.80
2019-01-20T04:04:09.147Z,-2.70
2019-01-20T04:04:31.871Z,-2.70
2019-01-20T04:04:54.549Z,-2.70
2019-01-20T04:05:17.189Z,-2.70
2019-01-20T04:05:39.990Z,-2.70
2019-01-20T04:06:02.591Z,-2.70
2019-01-20T04:06:25.349Z,-2.70
2019-01-20T04:06:48.011Z,-2.70
2019-01-20T04:07:10.786Z,-2.80
2019-01-20T04:07:33.430Z,-2.80
2019-01-20T04:07:56.243Z,-2.80
2019-01-20T04:08:18.940Z,-2.90
2019-01-20T04:08:42.029Z,-2.90
2019-01-20T04:09:06.370Z,-2.90
2019-01-20T04:09:29.050Z,-2.90
2019-01-20T04:09:51.811Z,-2.90
2019-01-20T04:10:17.173Z,-2.80
2019-01-20T04:10:39.830Z,-2.80
2019-01-20T04:11:02.518Z,-2.80
2019-01-20T04:11:25.210Z,-2.80
2019-01-20T04:11:47.907Z,-2.80
2019-01-20T04:12:10.624Z,-2.80
2019-01-20T04:12:33.350Z,-2.80
2019-01-20T04:12:56.110Z,-2.90
2019-01-20T04:13:19.271Z,-2.90
2019-01-20T04:13:41.951Z,-2.90
2019-01-20T04:14:04.543Z,-2.90
2019-01-20T04:14:27.309Z,-2.90
2019-01-20T04:14:49.951Z,-2.80
2019-01-20T04:15:12.850Z,-2.80
2019-01-20T04:15:36.270Z,-2.90
2019-01-20T04:15:59.272Z,-2.90
2019-01-20T04:16:21.973Z,-2.90
2019-01-20T04:16:45.613Z,-2.90
2019-01-20T04:17:08.329Z,-2.90
2019-01-20T04:17:31.181Z,-2.90
2019-01-20T04:17:53.741Z,-2.90
2019-01-20T04:18:16.351Z,-2.90
2019-01-20T04:18:39.136Z,-2.90
2019-01-20T04:19:01.710Z,-2.90
2019-01-20T04:19:24.510Z,-2.90
2019-01-20T04:19:47.312Z,-2.90
2019-01-20T04:20:09.970Z,-2.90
2019-01-20T04:20:32.558Z,-2.90
2019-01-20T04:20:55.152Z,-2.90
2019-01-20T04:21:18.194Z,-2.90
2019-01-20T04:21:41.130Z,-3.00
2019-01-20T04:22:03.733Z,-3.00
2019-01-20T04:22:26.509Z,-2.90
2019-01-20T04:22:49.070Z,-2.90
2019-01-20T04:23:11.641Z,-2.90
2019-01-20T04:23:34.410Z,-2.90
2019-01-20T04:23:57.482Z,-2.90
2019-01-20T04:24:20.212Z,-2.90
2019-01-20T04:24:44.191Z,-2.90
2019-01-20T04:25:06.970Z,-2.90
2019-01-20T04:25:29.632Z,-2.90
2019-01-20T04:25:52.370Z,-2.90
2019-01-20T04:26:15.070Z,-2.90
2019-01-20T04:26:37.824Z,-2.80
2019-01-20T04:27:00.471Z,-2.80
2019-01-20T04:27:23.450Z,-2.80
2019-01-20T04:27:46.238Z,-2.80
2019-01-20T04:28:08.950Z,-2.80
2019-01-20T04:28:31.745Z,-2.90
2019-01-20T04:28:54.550Z,-2.90
2019-01-20T04:29:17.184Z,-2.90
2019-01-20T04:29:41.350Z,-2.90
2019-01-20T04:30:03.904Z,-2.90
2019-01-20T04:30:26.572Z,-2.90
2019-01-20T04:30:51.510Z,-2.90
2019-01-20T04:31:14.181Z,-2.90
2019-01-20T04:31:38.471Z,-2.90
2019-01-20T04:32:01.231Z,-2.90
2019-01-20T04:32:23.870Z,-2.90
2019-01-20T04:32:46.650Z,-2.90
2019-01-20T04:33:09.370Z,-2.90
2019-01-20T04:33:31.970Z,-2.90
2019-01-20T04:33:54.712Z,-2.90
2019-01-20T04:34:17.893Z,-2.90
2019-01-20T04:34:40.632Z,-2.90
2019-01-20T04:35:03.210Z,-2.90
2019-01-20T04:35:25.876Z,-2.90
2019-01-20T04:35:48.431Z,-2.90
2019-01-20T04:36:11.057Z,-2.90
2019-01-20T04:36:33.763Z,-2.90
2019-01-20T04:36:56.410Z,-2.90
2019-01-20T04:37:19.104Z,-2.90
2019-01-20T04:37:42.189Z,-2.90
2019-01-20T04:38:05.186Z,-2.90
2019-01-20T04:38:27.953Z,-2.90
2019-01-20T04:38:52.390Z,-2.90
2019-01-20T04:39:15.130Z,-2.80
2019-01-20T04:39:38.299Z,-2.80
2019-01-20T04:40:01.037Z,-2.80
2019-01-20T04:40:23.511Z,-2.80
2019-01-20T04:40:46.230Z,-2.80
2019-01-20T04:41:08.873Z,-2.80
2019-01-20T04:41:31.571Z,-2.80
2019-01-20T04:41:54.306Z,-2.80
2019-01-20T04:42:17.051Z,-2.80
2019-01-20T04:42:39.871Z,-2.80
2019-01-20T04:43:02.432Z,-2.80
2019-01-20T04:43:25.179Z,-2.80
2019-01-20T04:43:47.853Z,-2.80
2019-01-20T04:44:11.070Z,-2.80
2019-01-20T04:44:33.710Z,-2.80
2019-01-20T04:44:56.372Z,-2.80
2019-01-20T04:45:19.350Z,-2.80
2019-01-20T04:45:42.090Z,-2.80
2019-01-20T04:46:04.651Z,-2.80
2019-01-20T04:46:27.451Z,-2.80
2019-01-20T04:46:50.096Z,-2.80
2019-01-20T04:47:12.730Z,-2.80
2019-01-20T04:47:35.412Z,-2.80
2019-01-20T04:47:58.070Z,-2.80
2019-01-20T04:48:20.692Z,-2.80
2019-01-20T04:48:43.313Z,-2.80
2019-01-20T04:49:06.030Z,-2.80
2019-01-20T04:49:28.771Z,-2.80
2019-01-20T04:49:51.550Z,-2.80
2019-01-20T04:50:14.190Z,-2.80
2019-01-20T04:50:36.910Z,-2.80
2019-01-20T04:50:59.511Z,-2.80
2019-01-20T04:51:22.114Z,-2.80
2019-01-20T04:51:44.792Z,-2.80
2019-01-20T04:52:07.551Z,-2.80
2019-01-20T04:52:30.250Z,-2.90
2019-01-20T04:52:52.892Z,-2.90
2019-01-20T04:53:15.498Z,-2.90
2019-01-20T04:53:38.191Z,-2.90
2019-01-20T04:54:01.021Z,-2.90
2019-01-20T04:54:23.747Z,-2.90
2019-01-20T04:54:46.410Z,-2.90
2019-01-20T04:55:08.991Z,-2.90
2019-01-20T04:55:31.749Z,-2.90
2019-01-20T04:55:54.389Z,-3.00